Flight Track Log - Related Links

Times and Time Zones

All times are in EDT time to prevent confusion due to time zone crossing. See the EJA951 flight status page for this flight to view local times or setup timezone preferences in your user account.

Time Position Orientation Groundspeed Altitude Reporting Facility
EDT Latitude Longitude Course Direction KTS MPH feet Rate Location/Type
Sat 07:22:43 AM 29.9958 -90.2844 288° West 167 192 400  Level Houston Center
Sat 07:23:02 AM 30.0006 -90.3008 288° West 168 193 1,300 2,400 Climbing Houston Center
Sat 07:23:28 AM 30.0056 -90.3194 287° West 187 215 2,200 3,500 Climbing Houston Center
Sat 07:24:02 AM 30.0392 -90.3403 332° Northwest 227 261 4,800 3,738 Climbing Houston Center
Sat 07:24:29 AM 30.0639 -90.3450 351° North 232 267 6,000 4,000 Climbing Houston Center
Sat 07:25:29 AM 30.1394 -90.3517 356° North 265 305 10,600 3,421 Climbing Houston Center
Sat 07:26:30 AM 30.2319 -90.3514 360° North 327 376 12,900 1,934 Climbing Houston Center
Sat 07:27:30 AM 30.3375 -90.3525 359° North 367 422 14,500 1,785 Climbing Houston Center
Sat 07:28:31 AM 30.4500 -90.3503 North 393 452 16,500 1,686 Climbing Houston Center
Sat 07:29:31 AM 30.5633 -90.3458 North 403 464 17,900 1,438 Climbing Houston Center
Sat 07:30:32 AM 30.6803 -90.3483 359° North 414 476 19,400 1,438 Climbing Houston Center
Sat 07:31:32 AM 30.7861 -90.3908 341° North 404 465 20,800 1,438 Climbing Houston Center
Sat 07:32:33 AM 30.8894 -90.4356 340° North 398 458 22,300 1,587 Climbing Houston Center
Sat 07:33:33 AM 30.9942 -90.4789 340° North 399 459 24,000 1,587 Climbing Houston Center
Sat 07:34:34 AM 31.0986 -90.5217 341° North 398 458 25,500 1,240 Climbing Houston Center
Sat 07:35:34 AM 31.2017 -90.5667 340° North 396 456 26,500 1,100 Climbing Houston Center
Sat 07:36:34 AM 31.3303 -90.6192 341° North 404 465 27,700 1,091 Climbing Houston Center
Sat 07:37:35 AM 31.4381 -90.6647 340° North 409 471 28,700 992 Climbing Houston Center
Sat 07:38:35 AM 31.5461 -90.7103 340° North 412 474 29,700 1,041 Climbing Houston Center
Sat 07:39:36 AM 31.6569 -90.7561 341° North 419 482 30,800 1,041 Climbing Houston Center
Sat 07:40:36 AM 31.7661 -90.8014 341° North 417 480 31,800 595 Climbing Houston Center
Sat 07:41:37 AM 31.8658 -90.8453 340° North 420 483 32,000 344 Climbing Houston Center
Sat 07:42:38 AM 31.9819 -90.8950 340° North 439 505 32,500 645 Climbing Houston Center
Sat 07:43:38 AM 32.0997 -90.9439 341° North 447 514 33,300 1,190 Climbing Houston Center
Sat 07:44:39 AM 32.2136 -90.9922 340° North 439 505 34,900 1,140 Climbing Houston Center
Sat 07:45:39 AM 32.3242 -91.0389 340° North 427 491 35,600 843 Climbing Houston Center
Sat 07:46:40 AM 32.4386 -91.0883 340° North 435 501 36,600 991 Climbing Houston Center
Sat 07:47:34 AM 32.5608 -91.1436 339° North 427 491 37,500 1,105 Climbing Memphis Center
Sat 07:48:34 AM 32.6756 -91.1939 340° North 433 498 38,700 1,250 Climbing Memphis Center
Sat 07:49:34 AM 32.7900 -91.2419 341° North 433 498 40,000 1,350 Climbing Memphis Center
Sat 07:50:34 AM 32.9022 -91.2900 340° North 428 493 41,400 1,400 Climbing Memphis Center
Sat 07:51:34 AM 33.0106 -91.3358 340° North 422 486 42,800 800 Climbing Memphis Center
Sat 07:52:34 AM 33.1103 -91.3792 340° North 422 486 43,000 100 Climbing Memphis Center
Sat 07:53:34 AM 33.2269 -91.4300 340° North 434 499 43,000  Level Memphis Center
Sat 07:54:34 AM 33.3453 -91.4836 339° North 440 506 43,000  Level Memphis Center
Sat 07:55:34 AM 33.4639 -91.5350 340° North 446 513 43,000  Level Memphis Center
Sat 07:56:34 AM 33.5803 -91.5889 339° North 451 519 43,000  Level Memphis Center
Sat 07:57:34 AM 33.7008 -91.6406 340° North 451 519 43,000  Level Memphis Center
Sat 07:58:34 AM 33.8317 -91.6975 340° North 451 519 43,000  Level Memphis Center
Sat 07:59:34 AM 33.9564 -91.7444 343° North 451 519 43,000  Level Memphis Center
Sat 08:00:34 AM 34.0725 -91.7992 339° North 451 519 43,000  Level Memphis Center
Sat 08:01:34 AM 34.1908 -91.8539 339° North 451 519 43,000  Level Memphis Center
Sat 08:02:34 AM 34.3092 -91.9061 340° North 451 519 43,000  Level Memphis Center
Sat 08:03:34 AM 34.4275 -91.9611 339° North 451 519 43,000  Level Memphis Center
Sat 08:04:34 AM 34.5500 -92.0164 340° North 451 519 43,000  Level Memphis Center
Sat 08:05:34 AM 34.6681 -92.0692 340° North 451 519 43,000  Level Memphis Center
Sat 08:06:34 AM 34.7864 -92.1222 340° North 451 519 43,000  Level Memphis Center
Sat 08:07:34 AM 34.9044 -92.1778 339° North 446 513 43,000  Level Memphis Center
Sat 08:08:34 AM 35.0206 -92.2283 340° North 446 513 43,000  Level Memphis Center
Sat 08:09:34 AM 35.1344 -92.2842 338° Northwest 446 513 43,000  Level Memphis Center
Sat 08:10:34 AM 35.2483 -92.3325 341° North 446 513 43,000  Level Memphis Center
Sat 08:11:34 AM 35.3603 -92.3861 339° North 440 506 43,000  Level Memphis Center
Sat 08:12:34 AM 35.4761 -92.4400 339° North 435 501 43,000  Level Memphis Center
Sat 08:13:34 AM 35.5878 -92.4914 339° North 435 501 43,000  Level Memphis Center
Sat 08:14:34 AM 35.6892 -92.5400 339° North 429 494 43,000  Level Memphis Center
Sat 08:15:34 AM 35.8031 -92.5914 340° North 429 494 43,000  Level Memphis Center
Sat 08:16:34 AM 35.9147 -92.6458 338° Northwest 429 494 43,000  Level Memphis Center
Sat 08:17:34 AM 36.0283 -92.6978 340° North 429 494 43,000  Level Memphis Center
Sat 08:18:34 AM 36.1400 -92.7497 339° North 429 494 43,000  Level Memphis Center
Sat 08:20:57 AM 36.4058 -92.8767 339° North 429 494 43,000  Level Kansas City Center
Sat 08:21:57 AM 36.5169 -92.9317 338° Northwest 429 494 43,000  Level Kansas City Center
Sat 08:22:58 AM 36.6250 -92.9817 340° North 427 491 43,000  Level Kansas City Center
Sat 08:23:59 AM 36.7378 -93.0378 338° Northwest 429 494 43,000  Level Kansas City Center
Sat 08:25:00 AM 36.8503 -93.0911 339° North 430 495 43,000  Level Kansas City Center
Sat 08:26:01 AM 36.9600 -93.1417 340° North 424 488 43,000  Level Kansas City Center
Sat 08:27:01 AM 37.0725 -93.1947 339° North 424 488 43,000  Level Kansas City Center
Sat 08:28:02 AM 37.2067 -93.2608 339° North 426 490 43,000  Level Kansas City Center
Sat 08:29:03 AM 37.3181 -93.3153 339° North 427 491 43,000  Level Kansas City Center
Sat 08:30:04 AM 37.4244 -93.3836 333° Northwest 420 483 43,000  Level Kansas City Center
Sat 08:31:05 AM 37.5244 -93.4536 331° Northwest 410 472 43,000  Level Kansas City Center
Sat 08:32:06 AM 37.6267 -93.5256 331° Northwest 414 476 43,000  Level Kansas City Center
Sat 08:33:07 AM 37.7281 -93.5983 330° Northwest 415 478 43,000  Level Kansas City Center
Sat 08:34:07 AM 37.8289 -93.6686 331° Northwest 412 474 43,000  Level Kansas City Center
Sat 08:35:08 AM 37.9275 -93.7408 330° Northwest 408 470 43,000  Level Kansas City Center
Sat 08:36:09 AM 38.0272 -93.8122 331° Northwest 408 470 43,000  Level Kansas City Center
Sat 08:37:10 AM 38.1267 -93.8833 331° Northwest 408 470 43,000  Level Kansas City Center
Sat 08:38:11 AM 38.2256 -93.9553 330° Northwest 408 470 43,000  Level Kansas City Center
Sat 08:39:12 AM 38.3253 -94.0264 331° Northwest 408 470 43,000  Level Kansas City Center
Sat 08:40:13 AM 38.4239 -94.0986 330° Northwest 406 467 43,000  Level Kansas City Center
Sat 08:41:14 AM 38.5183 -94.1669 330° Northwest 407 468 43,000 -492 Level Kansas City Center
Sat 08:42:15 AM 38.6292 -94.2472 331° Northwest 410 472 42,000 -984 Descending Kansas City Center
Sat 08:43:16 AM 38.7319 -94.3031 337° Northwest 417 480 41,000 -942 Descending Kansas City Center
Sat 08:44:16 AM 38.8358 -94.3536 339° North 417 480 40,100 -992 Descending Kansas City Center
Sat 08:45:17 AM 38.9581 -94.4147 339° North 422 486 39,000 -1,033 Descending Kansas City Center
Sat 08:46:18 AM 39.0633 -94.4675 339° North 425 489 38,000 -492 Descending Kansas City Center
Sat 08:47:19 AM 39.1658 -94.5183 339° North 416 479 38,000 -1,082 Level Kansas City Center
Sat 08:48:20 AM 39.2808 -94.5864 335° Northwest 410 472 35,800 -1,918 Descending Kansas City Center
Sat 08:49:21 AM 39.3789 -94.6469 334° Northwest 408 470 34,100 -1,721 Descending Kansas City Center
Sat 08:50:22 AM 39.4844 -94.7150 334° Northwest 383 441 32,300 -1,672 Descending Kansas City Center
Sat 08:51:23 AM 39.5761 -94.7725 334° Northwest 383 441 30,700 -1,328 Descending Kansas City Center
Sat 08:52:24 AM 39.6653 -94.8292 334° Northwest 376 433 29,600 -1,180 Descending Kansas City Center
Sat 08:53:25 AM 39.7658 -94.8933 334° Northwest 362 417 28,300 -1,131 Descending Kansas City Center
Sat 08:54:26 AM 39.8522 -94.9481 334° Northwest 362 417 27,300 -1,033 Descending Kansas City Center
Sat 08:55:27 AM 39.9550 -95.0136 334° Northwest 368 423 26,200 -984 Descending Kansas City Center
Sat 08:56:28 AM 40.0439 -95.0714 334° Northwest 373 429 25,300 -934 Descending Kansas City Center
Sat 08:57:29 AM 40.1319 -95.1275 334° Northwest 369 425 24,300 -639 Descending Kansas City Center
Sat 08:58:30 AM 40.2303 -95.1914 334° Northwest 356 410 24,000 -600 Descending Kansas City Center
Sat 08:59:19 AM 40.2864 -95.2261 335° Northwest 357 411 23,200 -1,745 Descending Minneapolis Center
Sat 09:00:20 AM 40.3911 -95.2950 333° Northwest 352 405 20,800 -2,186 Descending Minneapolis Center
Sat 09:01:17 AM 40.4797 -95.3303 343° North 336 387 18,900 -1,967 Descending Minneapolis Center
Sat 09:01:21 AM 40.4742 -95.3500 250° West 340 391 18,800 -1,754 Descending Minneapolis Center
Sat 09:02:22 AM 40.5567 -95.4022 334° Northwest 332 382 17,000 -1,869 Descending Minneapolis Center
Sat 09:03:23 AM 40.6361 -95.4533 334° Northwest 323 372 15,000 -1,879 Descending Minneapolis Center
Sat 09:04:01 AM 40.6864 -95.4697 346° North 284 327 13,900 -1,672 Descending Minneapolis Center
Sat 09:04:24 AM 40.7069 -95.4950 317° Northwest 293 337 13,300 -1,672 Descending Minneapolis Center
Sat 09:05:02 AM 40.7564 -95.5136 344° North 243 280 12,200 -1,475 Descending Minneapolis Center
Sat 09:05:25 AM 40.7686 -95.5331 310° West 266 306 11,800 -1,364 Descending Minneapolis Center
Sat 09:06:08 AM 40.8178 -95.5528 343° North 227 261 10,700 -1,377 Descending Minneapolis Center
Sat 09:06:26 AM 40.8261 -95.5686 305° West 247 284 10,400 -1,377 Descending Minneapolis Center
Sat 09:07:09 AM 40.8750 -95.5903 341° North 223 257 9,300 -1,377 Descending Minneapolis Center
Sat 09:07:27 AM 40.8808 -95.6033 301° West 232 267 9,000 -1,377 Descending Minneapolis Center
Sat 09:08:10 AM 40.9272 -95.6225 343° North 213 245 7,900 -1,377 Descending Minneapolis Center
Sat 09:08:28 AM 40.9350 -95.6347 310° West 218 251 7,600 -1,500 Descending Minneapolis Center
Sat 09:09:10 AM 40.9800 -95.6575 339° North 209 241 6,400 -1,377 Descending Minneapolis Center
Sat 09:09:29 AM 40.9878 -95.6672 317° Northwest 213 245 6,200 -1,180 Descending Minneapolis Center
Sat 09:10:11 AM 41.0325 -95.6928 337° Northwest 203 234 5,200 -1,082 Descending Minneapolis Center
Sat 09:10:30 AM 41.0381 -95.6986 322° Northwest 207 238 5,100 -1,082 Descending Minneapolis Center
Sat 09:11:12 AM 41.0808 -95.7231 337° Northwest 190 219 4,100 -1,180 Descending Minneapolis Center
Sat 09:11:31 AM 41.0847 -95.7283 314° West 198 228 3,900 -1,200 Descending Minneapolis Center
Sat 09:12:12 AM 41.1267 -95.7536 336° Northwest 188 216 2,900 -1,082 Descending Minneapolis Center
Sat 09:12:32 AM 41.1328 -95.7572 336° Northwest 192 221 2,800 -98 Descending Minneapolis Center
Sat 09:13:13 AM 41.1706 -95.7817 334° Northwest 171 197 2,800  Level Minneapolis Center
Sat 09:13:33 AM 41.1856 -95.7881 342° North 183 211 2,800  Level Minneapolis Center
Sat 09:14:14 AM 41.2075 -95.8050 330° Northwest 138 159 2,800  Level Minneapolis Center
Sat 09:14:34 AM 41.2186 -95.8106 339° North 159 183 2,800 -400 Level Minneapolis Center
Sat 09:15:14 AM 41.2386 -95.8319 321° Northwest 126 145 2,400 -590 Descending Minneapolis Center
Sat 09:15:35 AM 41.2464 -95.8358 339° North 138 159 2,200 -590 Descending Minneapolis Center
Sat 09:16:15 AM 41.2633 -95.8567 317° Northwest 104 120 1,800 -492 Descending Minneapolis Center
Sat 09:16:36 AM 41.2703 -95.8600 340° North 122 140 1,700 -655 Descending Minneapolis Center
Sat 09:17:10 AM 41.2858 -95.8789 318° Northwest 108 124 1,200 -689 Descending Minneapolis Center
Sat 09:17:37 AM 41.2953 -95.8828 343° North 114 131 1,000 -444 Descending Minneapolis Center
Sat 09:19:00 AM 41.3000 -95.8833 346° North  Level FlightAware Approximate

Login

Don't have an account? Register now (free) for customized features, flight alerts, and more!